sensor_id;sensor_type;location;lat;lon;timestamp;temperature;humidity
72604;DHT22;60645;56.968;24.196;2024-03-17T00:01:36;7.70;99.90
72604;DHT22;60645;56.968;24.196;2024-03-17T00:04:03;7.50;99.90
72604;DHT22;60645;56.968;24.196;2024-03-17T00:06:29;7.50;99.90
72604;DHT22;60645;56.968;24.196;2024-03-17T00:08:55;7.40;99.90
72604;DHT22;60645;56.968;24.196;2024-03-17T00:11:21;7.30;99.80
72604;DHT22;60645;56.968;24.196;2024-03-17T00:13:47;7.10;99.60
72604;DHT22;60645;56.968;24.196;2024-03-17T00:16:13;7.00;99.90
72604;DHT22;60645;56.968;24.196;2024-03-17T00:18:39;7.00;99.80
72604;DHT22;60645;56.968;24.196;2024-03-17T00:21:05;7.00;99.70
72604;DHT22;60645;56.968;24.196;2024-03-17T00:23:30;6.90;99.90
72604;DHT22;60645;56.968;24.196;2024-03-17T00:25:56;7.00;99.90
72604;DHT22;60645;56.968;24.196;2024-03-17T00:28:22;6.90;99.40
72604;DHT22;60645;56.968;24.196;2024-03-17T00:30:48;6.90;99.40
72604;DHT22;60645;56.968;24.196;2024-03-17T00:33:14;6.90;99.30
72604;DHT22;60645;56.968;24.196;2024-03-17T00:35:40;7.00;99.50
72604;DHT22;60645;56.968;24.196;2024-03-17T00:38:06;7.00;99.60
72604;DHT22;60645;56.968;24.196;2024-03-17T00:40:39;6.90;99.20
72604;DHT22;60645;56.968;24.196;2024-03-17T00:43:07;6.80;98.80
72604;DHT22;60645;56.968;24.196;2024-03-17T00:45:33;6.60;98.60
72604;DHT22;60645;56.968;24.196;2024-03-17T00:47:59;6.40;98.50
72604;DHT22;60645;56.968;24.196;2024-03-17T00:50:25;6.10;98.80
72604;DHT22;60645;56.968;24.196;2024-03-17T00:52:50;6.00;98.30
72604;DHT22;60645;56.968;24.196;2024-03-17T00:55:16;5.80;97.90
72604;DHT22;60645;56.968;24.196;2024-03-17T00:57:42;5.80;97.80
72604;DHT22;60645;56.968;24.196;2024-03-17T01:00:08;5.80;98.10
72604;DHT22;60645;56.968;24.196;2024-03-17T01:02:43;5.60;97.90
72604;DHT22;60645;56.968;24.196;2024-03-17T01:05:09;5.40;97.90
72604;DHT22;60645;56.968;24.196;2024-03-17T01:07:35;5.30;97.80
72604;DHT22;60645;56.968;24.196;2024-03-17T01:10:00;5.50;97.60
72604;DHT22;60645;56.968;24.196;2024-03-17T01:12:26;5.30;97.60
72604;DHT22;60645;56.968;24.196;2024-03-17T01:14:52;5.20;97.80
72604;DHT22;60645;56.968;24.196;2024-03-17T01:17:18;5.10;98.20
72604;DHT22;60645;56.968;24.196;2024-03-17T01:19:44;5.00;98.40
72604;DHT22;60645;56.968;24.196;2024-03-17T01:22:10;5.00;98.80
72604;DHT22;60645;56.968;24.196;2024-03-17T01:24:36;4.90;98.70
72604;DHT22;60645;56.968;24.196;2024-03-17T01:27:05;4.90;99.10
72604;DHT22;60645;56.968;24.196;2024-03-17T01:29:32;4.80;99.70
72604;DHT22;60645;56.968;24.196;2024-03-17T01:31:57;4.80;99.90
72604;DHT22;60645;56.968;24.196;2024-03-17T01:34:23;4.90;99.90
72604;DHT22;60645;56.968;24.196;2024-03-17T01:36:49;4.80;99.90
72604;DHT22;60645;56.968;24.196;2024-03-17T01:39:15;4.90;99.90
72604;DHT22;60645;56.968;24.196;2024-03-17T01:41:42;4.70;99.90
72604;DHT22;60645;56.968;24.196;2024-03-17T01:44:08;4.80;99.90
72604;DHT22;60645;56.968;24.196;2024-03-17T01:46:47;4.60;99.90
72604;DHT22;60645;56.968;24.196;2024-03-17T01:49:12;4.70;99.90
72604;DHT22;60645;56.968;24.196;2024-03-17T01:51:38;4.60;99.90
72604;DHT22;60645;56.968;24.196;2024-03-17T01:54:04;4.40;99.90
72604;DHT22;60645;56.968;24.196;2024-03-17T01:56:30;4.40;99.90
72604;DHT22;60645;56.968;24.196;2024-03-17T01:58:56;4.50;99.90
72604;DHT22;60645;56.968;24.196;2024-03-17T02:01:22;4.20;99.90
72604;DHT22;60645;56.968;24.196;2024-03-17T02:03:48;4.30;99.90
72604;DHT22;60645;56.968;24.196;2024-03-17T02:06:14;4.50;99.90
72604;DHT22;60645;56.968;24.196;2024-03-17T02:09:13;4.40;99.90
72604;DHT22;60645;56.968;24.196;2024-03-17T02:11:33;4.30;99.90
72604;DHT22;60645;56.968;24.196;2024-03-17T02:14:00;4.30;99.90
72604;DHT22;60645;56.968;24.196;2024-03-17T02:16:26;4.10;99.90
72604;DHT22;60645;56.968;24.196;2024-03-17T02:18:55;4.30;99.90
72604;DHT22;60645;56.968;24.196;2024-03-17T02:21:22;4.30;99.90
72604;DHT22;60645;56.968;24.196;2024-03-17T02:23:53;4.20;99.90
72604;DHT22;60645;56.968;24.196;2024-03-17T02:26:19;4.20;99.90
72604;DHT22;60645;56.968;24.196;2024-03-17T02:28:46;4.40;99.90
72604;DHT22;60645;56.968;24.196;2024-03-17T02:31:13;4.50;99.90
72604;DHT22;60645;56.968;24.196;2024-03-17T02:33:39;4.20;99.90
72604;DHT22;60645;56.968;24.196;2024-03-17T02:36:05;4.60;99.90
72604;DHT22;60645;56.968;24.196;2024-03-17T02:38:33;4.60;99.90
72604;DHT22;60645;56.968;24.196;2024-03-17T02:41:17;4.50;99.90
72604;DHT22;60645;56.968;24.196;2024-03-17T02:43:44;4.60;99.90
72604;DHT22;60645;56.968;24.196;2024-03-17T02:46:11;4.50;99.90
72604;DHT22;60645;56.968;24.196;2024-03-17T02:48:39;4.50;99.80
72604;DHT22;60645;56.968;24.196;2024-03-17T02:51:10;4.50;99.40
72604;DHT22;60645;56.968;24.196;2024-03-17T02:53:36;4.50;99.30
72604;DHT22;60645;56.968;24.196;2024-03-17T02:56:02;4.60;99.20
72604;DHT22;60645;56.968;24.196;2024-03-17T02:58:28;4.60;98.80
72604;DHT22;60645;56.968;24.196;2024-03-17T03:00:54;4.30;98.90
72604;DHT22;60645;56.968;24.196;2024-03-17T03:03:19;4.50;98.80
72604;DHT22;60645;56.968;24.196;2024-03-17T03:05:45;4.40;98.90
72604;DHT22;60645;56.968;24.196;2024-03-17T03:08:11;4.30;99.10
72604;DHT22;60645;56.968;24.196;2024-03-17T03:10:37;4.40;98.70
72604;DHT22;60645;56.968;24.196;2024-03-17T03:13:03;4.40;99.00
72604;DHT22;60645;56.968;24.196;2024-03-17T03:15:30;4.30;99.30
72604;DHT22;60645;56.968;24.196;2024-03-17T03:17:56;4.30;98.80
72604;DHT22;60645;56.968;24.196;2024-03-17T03:20:22;4.20;99.00
72604;DHT22;60645;56.968;24.196;2024-03-17T03:22:48;4.30;98.90
72604;DHT22;60645;56.968;24.196;2024-03-17T03:25:13;4.30;98.80
72604;DHT22;60645;56.968;24.196;2024-03-17T03:27:39;4.20;98.40
72604;DHT22;60645;56.968;24.196;2024-03-17T03:30:05;4.30;98.70
72604;DHT22;60645;56.968;24.196;2024-03-17T03:32:34;4.10;98.90
72604;DHT22;60645;56.968;24.196;2024-03-17T03:34:59;4.10;99.00
72604;DHT22;60645;56.968;24.196;2024-03-17T03:37:25;4.20;99.10
72604;DHT22;60645;56.968;24.196;2024-03-17T03:39:51;4.20;98.80
72604;DHT22;60645;56.968;24.196;2024-03-17T03:42:17;4.20;98.60
72604;DHT22;60645;56.968;24.196;2024-03-17T03:44:43;4.00;98.50
72604;DHT22;60645;56.968;24.196;2024-03-17T03:47:08;4.20;98.40
72604;DHT22;60645;56.968;24.196;2024-03-17T03:49:34;4.00;98.30
72604;DHT22;60645;56.968;24.196;2024-03-17T03:52:00;4.00;98.50
72604;DHT22;60645;56.968;24.196;2024-03-17T03:54:26;3.90;98.40
72604;DHT22;60645;56.968;24.196;2024-03-17T03:56:51;3.90;98.30
72604;DHT22;60645;56.968;24.196;2024-03-17T03:59:17;4.00;98.30
72604;DHT22;60645;56.968;24.196;2024-03-17T04:01:43;3.80;98.40
72604;DHT22;60645;56.968;24.196;2024-03-17T04:04:09;4.00;98.10
72604;DHT22;60645;56.968;24.196;2024-03-17T04:06:35;4.00;98.10
72604;DHT22;60645;56.968;24.196;2024-03-17T04:09:03;3.80;98.50
72604;DHT22;60645;56.968;24.196;2024-03-17T04:11:34;4.00;98.20
72604;DHT22;60645;56.968;24.196;2024-03-17T04:14:00;4.00;98.10
72604;DHT22;60645;56.968;24.196;2024-03-17T04:16:26;3.90;98.10
72604;DHT22;60645;56.968;24.196;2024-03-17T04:18:52;4.10;98.20
72604;DHT22;60645;56.968;24.196;2024-03-17T04:21:18;3.90;98.20
72604;DHT22;60645;56.968;24.196;2024-03-17T04:23:43;3.80;98.50
72604;DHT22;60645;56.968;24.196;2024-03-17T04:26:09;3.90;98.20
72604;DHT22;60645;56.968;24.196;2024-03-17T04:28:35;3.80;98.50
72604;DHT22;60645;56.968;24.196;2024-03-17T04:31:02;3.90;98.10
72604;DHT22;60645;56.968;24.196;2024-03-17T04:33:30;4.00;98.20
72604;DHT22;60645;56.968;24.196;2024-03-17T04:35:55;3.70;98.30
72604;DHT22;60645;56.968;24.196;2024-03-17T04:38:21;3.80;98.20
72604;DHT22;60645;56.968;24.196;2024-03-17T04:40:47;3.90;98.40
72604;DHT22;60645;56.968;24.196;2024-03-17T04:43:13;3.90;98.40
72604;DHT22;60645;56.968;24.196;2024-03-17T04:45:40;3.80;98.40
72604;DHT22;60645;56.968;24.196;2024-03-17T04:48:06;3.90;98.10
72604;DHT22;60645;56.968;24.196;2024-03-17T04:50:32;3.90;98.00
72604;DHT22;60645;56.968;24.196;2024-03-17T04:52:59;3.80;98.00
72604;DHT22;60645;56.968;24.196;2024-03-17T04:55:25;3.90;98.20
72604;DHT22;60645;56.968;24.196;2024-03-17T04:57:51;3.90;98.10
72604;DHT22;60645;56.968;24.196;2024-03-17T05:00:16;3.90;97.70
72604;DHT22;60645;56.968;24.196;2024-03-17T05:02:44;4.00;97.60
72604;DHT22;60645;56.968;24.196;2024-03-17T05:05:10;3.80;97.40
72604;DHT22;60645;56.968;24.196;2024-03-17T05:07:36;3.90;97.80
72604;DHT22;60645;56.968;24.196;2024-03-17T05:10:03;3.70;97.50
72604;DHT22;60645;56.968;24.196;2024-03-17T05:12:29;3.90;97.60
72604;DHT22;60645;56.968;24.196;2024-03-17T05:14:54;3.90;97.60
72604;DHT22;60645;56.968;24.196;2024-03-17T05:17:20;4.20;97.50
72604;DHT22;60645;56.968;24.196;2024-03-17T05:19:46;4.10;97.30
72604;DHT22;60645;56.968;24.196;2024-03-17T05:22:12;4.10;97.30
72604;DHT22;60645;56.968;24.196;2024-03-17T05:24:38;4.10;97.10
72604;DHT22;60645;56.968;24.196;2024-03-17T05:27:03;4.10;96.80
72604;DHT22;60645;56.968;24.196;2024-03-17T05:29:29;4.00;96.70
72604;DHT22;60645;56.968;24.196;2024-03-17T05:31:55;4.10;96.40
72604;DHT22;60645;56.968;24.196;2024-03-17T05:34:21;4.10;96.60
72604;DHT22;60645;56.968;24.196;2024-03-17T05:36:48;4.10;96.70
72604;DHT22;60645;56.968;24.196;2024-03-17T05:39:15;4.20;97.00
72604;DHT22;60645;56.968;24.196;2024-03-17T05:41:40;4.20;96.60
72604;DHT22;60645;56.968;24.196;2024-03-17T05:44:09;4.20;96.20
72604;DHT22;60645;56.968;24.196;2024-03-17T05:46:35;4.30;96.50
72604;DHT22;60645;56.968;24.196;2024-03-17T05:49:00;4.30;95.90
72604;DHT22;60645;56.968;24.196;2024-03-17T05:51:26;4.50;95.90
72604;DHT22;60645;56.968;24.196;2024-03-17T05:53:53;4.30;95.70
72604;DHT22;60645;56.968;24.196;2024-03-17T05:56:21;4.30;95.90
72604;DHT22;60645;56.968;24.196;2024-03-17T05:58:48;4.40;95.80
72604;DHT22;60645;56.968;24.196;2024-03-17T06:01:14;4.50;95.80
72604;DHT22;60645;56.968;24.196;2024-03-17T06:03:40;4.70;95.70
72604;DHT22;60645;56.968;24.196;2024-03-17T06:06:07;4.40;95.10
72604;DHT22;60645;56.968;24.196;2024-03-17T06:08:36;4.70;94.80
72604;DHT22;60645;56.968;24.196;2024-03-17T06:11:03;4.70;94.40
72604;DHT22;60645;56.968;24.196;2024-03-17T06:13:30;4.70;94.90
72604;DHT22;60645;56.968;24.196;2024-03-17T06:15:56;4.60;94.70
72604;DHT22;60645;56.968;24.196;2024-03-17T06:18:27;4.50;94.60
72604;DHT22;60645;56.968;24.196;2024-03-17T06:20:53;4.60;94.50
72604;DHT22;60645;56.968;24.196;2024-03-17T06:23:19;4.70;94.00
72604;DHT22;60645;56.968;24.196;2024-03-17T06:25:46;4.60;94.30
72604;DHT22;60645;56.968;24.196;2024-03-17T06:28:13;4.80;94.50
72604;DHT22;60645;56.968;24.196;2024-03-17T06:30:47;4.70;94.00
72604;DHT22;60645;56.968;24.196;2024-03-17T06:33:19;4.70;93.80
72604;DHT22;60645;56.968;24.196;2024-03-17T06:35:45;4.80;93.70
72604;DHT22;60645;56.968;24.196;2024-03-17T06:38:12;4.80;93.20
72604;DHT22;60645;56.968;24.196;2024-03-17T06:40:38;4.70;93.00
72604;DHT22;60645;56.968;24.196;2024-03-17T06:43:04;4.80;93.10
72604;DHT22;60645;56.968;24.196;2024-03-17T06:45:31;5.10;91.90
72604;DHT22;60645;56.968;24.196;2024-03-17T06:47:58;5.30;91.50
72604;DHT22;60645;56.968;24.196;2024-03-17T06:50:23;5.80;90.50
72604;DHT22;60645;56.968;24.196;2024-03-17T06:52:49;6.40;88.90
72604;DHT22;60645;56.968;24.196;2024-03-17T06:55:17;6.90;86.40
72604;DHT22;60645;56.968;24.196;2024-03-17T06:57:44;7.00;85.10
72604;DHT22;60645;56.968;24.196;2024-03-17T07:00:10;6.80;85.80
72604;DHT22;60645;56.968;24.196;2024-03-17T07:02:40;6.60;86.80
72604;DHT22;60645;56.968;24.196;2024-03-17T07:05:06;6.60;86.40
72604;DHT22;60645;56.968;24.196;2024-03-17T07:07:32;6.50;86.10
72604;DHT22;60645;56.968;24.196;2024-03-17T07:09:58;6.40;87.40
72604;DHT22;60645;56.968;24.196;2024-03-17T07:12:24;6.40;87.00
72604;DHT22;60645;56.968;24.196;2024-03-17T07:14:50;6.40;87.50
72604;DHT22;60645;56.968;24.196;2024-03-17T07:17:17;6.10;87.20
72604;DHT22;60645;56.968;24.196;2024-03-17T07:19:42;6.20;87.90
72604;DHT22;60645;56.968;24.196;2024-03-17T07:22:08;5.90;88.70
72604;DHT22;60645;56.968;24.196;2024-03-17T07:24:34;5.80;89.70
72604;DHT22;60645;56.968;24.196;2024-03-17T07:27:00;5.70;89.70
72604;DHT22;60645;56.968;24.196;2024-03-17T07:29:26;5.70;90.30
72604;DHT22;60645;56.968;24.196;2024-03-17T07:31:51;5.60;90.40
72604;DHT22;60645;56.968;24.196;2024-03-17T07:34:17;5.70;89.20
72604;DHT22;60645;56.968;24.196;2024-03-17T07:36:43;5.70;89.50
72604;DHT22;60645;56.968;24.196;2024-03-17T07:39:11;5.60;90.20
72604;DHT22;60645;56.968;24.196;2024-03-17T07:41:37;5.90;90.20
72604;DHT22;60645;56.968;24.196;2024-03-17T07:44:03;5.90;90.10
72604;DHT22;60645;56.968;24.196;2024-03-17T07:46:29;5.70;90.40
72604;DHT22;60645;56.968;24.196;2024-03-17T07:48:54;5.90;90.30
72604;DHT22;60645;56.968;24.196;2024-03-17T07:51:20;5.90;90.00
72604;DHT22;60645;56.968;24.196;2024-03-17T07:53:47;5.80;89.80
72604;DHT22;60645;56.968;24.196;2024-03-17T07:56:18;5.90;89.90
72604;DHT22;60645;56.968;24.196;2024-03-17T07:58:45;5.70;89.80
72604;DHT22;60645;56.968;24.196;2024-03-17T08:01:11;5.90;89.70
72604;DHT22;60645;56.968;24.196;2024-03-17T08:03:38;5.80;89.50
72604;DHT22;60645;56.968;24.196;2024-03-17T08:06:05;5.90;89.50
72604;DHT22;60645;56.968;24.196;2024-03-17T08:08:31;6.10;89.20
72604;DHT22;60645;56.968;24.196;2024-03-17T08:10:57;5.80;88.80
72604;DHT22;60645;56.968;24.196;2024-03-17T08:13:23;5.90;89.00
72604;DHT22;60645;56.968;24.196;2024-03-17T08:16:03;5.90;88.90
72604;DHT22;60645;56.968;24.196;2024-03-17T08:18:29;6.00;88.90
72604;DHT22;60645;56.968;24.196;2024-03-17T08:20:55;5.80;89.30
72604;DHT22;60645;56.968;24.196;2024-03-17T08:23:21;5.70;89.60
72604;DHT22;60645;56.968;24.196;2024-03-17T08:28:19;5.60;90.20
72604;DHT22;60645;56.968;24.196;2024-03-17T08:30:55;5.40;89.50
72604;DHT22;60645;56.968;24.196;2024-03-17T08:33:21;5.60;89.90
72604;DHT22;60645;56.968;24.196;2024-03-17T08:35:58;5.60;89.70
72604;DHT22;60645;56.968;24.196;2024-03-17T08:38:24;5.80;89.40
72604;DHT22;60645;56.968;24.196;2024-03-17T08:40:50;5.90;89.50
72604;DHT22;60645;56.968;24.196;2024-03-17T08:43:16;5.70;89.10
72604;DHT22;60645;56.968;24.196;2024-03-17T08:45:42;5.90;89.10
72604;DHT22;60645;56.968;24.196;2024-03-17T08:48:09;5.90;88.90
72604;DHT22;60645;56.968;24.196;2024-03-17T08:50:36;5.70;89.00
72604;DHT22;60645;56.968;24.196;2024-03-17T08:53:02;5.70;89.30
72604;DHT22;60645;56.968;24.196;2024-03-17T08:55:28;5.80;89.30
72604;DHT22;60645;56.968;24.196;2024-03-17T08:57:54;6.10;89.10
72604;DHT22;60645;56.968;24.196;2024-03-17T09:00:19;5.90;88.90
72604;DHT22;60645;56.968;24.196;2024-03-17T09:02:45;5.90;88.80
72604;DHT22;60645;56.968;24.196;2024-03-17T09:05:11;6.00;88.60
72604;DHT22;60645;56.968;24.196;2024-03-17T09:07:38;6.00;87.90
72604;DHT22;60645;56.968;24.196;2024-03-17T09:10:04;5.90;89.10
72604;DHT22;60645;56.968;24.196;2024-03-17T09:12:30;5.80;88.60
72604;DHT22;60645;56.968;24.196;2024-03-17T09:14:56;6.00;88.20
72604;DHT22;60645;56.968;24.196;2024-03-17T09:17:22;6.00;88.20
72604;DHT22;60645;56.968;24.196;2024-03-17T09:19:48;6.00;88.10
72604;DHT22;60645;56.968;24.196;2024-03-17T09:22:14;6.10;87.40
72604;DHT22;60645;56.968;24.196;2024-03-17T09:24:39;6.20;87.30
72604;DHT22;60645;56.968;24.196;2024-03-17T09:27:06;6.30;87.00
72604;DHT22;60645;56.968;24.196;2024-03-17T09:29:32;6.30;86.70
72604;DHT22;60645;56.968;24.196;2024-03-17T09:31:58;6.40;86.50
72604;DHT22;60645;56.968;24.196;2024-03-17T09:34:24;6.30;86.60
72604;DHT22;60645;56.968;24.196;2024-03-17T09:36:50;6.50;86.20
72604;DHT22;60645;56.968;24.196;2024-03-17T09:39:16;6.70;85.60
72604;DHT22;60645;56.968;24.196;2024-03-17T09:41:42;6.70;84.90
72604;DHT22;60645;56.968;24.196;2024-03-17T09:44:11;6.70;84.90
72604;DHT22;60645;56.968;24.196;2024-03-17T09:46:38;6.70;85.70
72604;DHT22;60645;56.968;24.196;2024-03-17T09:49:04;6.70;84.80
72604;DHT22;60645;56.968;24.196;2024-03-17T09:51:33;6.70;85.10
72604;DHT22;60645;56.968;24.196;2024-03-17T09:54:00;6.60;85.10
72604;DHT22;60645;56.968;24.196;2024-03-17T09:56:26;6.50;86.00
72604;DHT22;60645;56.968;24.196;2024-03-17T09:58:52;6.60;85.60
72604;DHT22;60645;56.968;24.196;2024-03-17T10:01:18;6.60;84.90
72604;DHT22;60645;56.968;24.196;2024-03-17T10:03:45;6.60;85.50
72604;DHT22;60645;56.968;24.196;2024-03-17T10:06:11;6.60;85.20
72604;DHT22;60645;56.968;24.196;2024-03-17T10:08:41;6.70;84.30
72604;DHT22;60645;56.968;24.196;2024-03-17T10:11:07;6.40;84.50
72604;DHT22;60645;56.968;24.196;2024-03-17T10:13:33;6.50;84.80
72604;DHT22;60645;56.968;24.196;2024-03-17T10:15:59;6.60;85.20
72604;DHT22;60645;56.968;24.196;2024-03-17T10:18:25;6.60;85.50
72604;DHT22;60645;56.968;24.196;2024-03-17T10:20:51;6.70;86.10
72604;DHT22;60645;56.968;24.196;2024-03-17T10:23:20;6.50;85.90
72604;DHT22;60645;56.968;24.196;2024-03-17T10:25:46;6.90;86.40
72604;DHT22;60645;56.968;24.196;2024-03-17T10:28:12;6.80;85.60
72604;DHT22;60645;56.968;24.196;2024-03-17T10:30:39;6.70;85.60
72604;DHT22;60645;56.968;24.196;2024-03-17T10:33:05;6.80;85.70
72604;DHT22;60645;56.968;24.196;2024-03-17T10:35:34;6.90;84.90
72604;DHT22;60645;56.968;24.196;2024-03-17T10:38:01;7.00;84.50
72604;DHT22;60645;56.968;24.196;2024-03-17T10:40:28;6.90;84.40
72604;DHT22;60645;56.968;24.196;2024-03-17T10:42:55;6.90;83.80
72604;DHT22;60645;56.968;24.196;2024-03-17T10:45:21;7.00;84.20
72604;DHT22;60645;56.968;24.196;2024-03-17T10:47:48;6.90;84.80
72604;DHT22;60645;56.968;24.196;2024-03-17T10:50:19;7.10;84.40
72604;DHT22;60645;56.968;24.196;2024-03-17T10:52:46;7.20;83.50
72604;DHT22;60645;56.968;24.196;2024-03-17T10:55:19;7.10;84.60
72604;DHT22;60645;56.968;24.196;2024-03-17T10:57:46;7.00;84.30
72604;DHT22;60645;56.968;24.196;2024-03-17T11:00:14;7.00;84.20
72604;DHT22;60645;56.968;24.196;2024-03-17T11:02:43;7.20;83.70
72604;DHT22;60645;56.968;24.196;2024-03-17T11:07:45;7.10;83.00
72604;DHT22;60645;56.968;24.196;2024-03-17T11:12:50;7.40;82.70
72604;DHT22;60645;56.968;24.196;2024-03-17T11:17:45;7.70;81.50
72604;DHT22;60645;56.968;24.196;2024-03-17T11:20:15;7.70;81.60
72604;DHT22;60645;56.968;24.196;2024-03-17T11:22:42;7.50;82.30
72604;DHT22;60645;56.968;24.196;2024-03-17T11:25:53;7.40;82.40
72604;DHT22;60645;56.968;24.196;2024-03-17T11:27:59;7.40;82.40
72604;DHT22;60645;56.968;24.196;2024-03-17T11:30:42;7.60;82.10
72604;DHT22;60645;56.968;24.196;2024-03-17T11:41:36;7.10;83.10
72604;DHT22;60645;56.968;24.196;2024-03-17T11:44:39;7.10;83.30
72604;DHT22;60645;56.968;24.196;2024-03-17T11:47:05;7.00;83.70
72604;DHT22;60645;56.968;24.196;2024-03-17T11:49:38;6.70;84.90
72604;DHT22;60645;56.968;24.196;2024-03-17T11:54:34;6.50;89.00
72604;DHT22;60645;56.968;24.196;2024-03-17T11:57:08;6.10;91.10
72604;DHT22;60645;56.968;24.196;2024-03-17T11:59:35;6.00;91.80
72604;DHT22;60645;56.968;24.196;2024-03-17T12:02:02;5.80;92.30
72604;DHT22;60645;56.968;24.196;2024-03-17T12:04:38;5.90;93.50
72604;DHT22;60645;56.968;24.196;2024-03-17T12:07:04;5.70;94.10
72604;DHT22;60645;56.968;24.196;2024-03-17T12:09:35;5.60;94.30
72604;DHT22;60645;56.968;24.196;2024-03-17T12:12:01;5.40;95.00
72604;DHT22;60645;56.968;24.196;2024-03-17T12:14:28;5.50;95.10
72604;DHT22;60645;56.968;24.196;2024-03-17T12:16:54;5.50;95.60
72604;DHT22;60645;56.968;24.196;2024-03-17T12:19:20;5.50;95.40
72604;DHT22;60645;56.968;24.196;2024-03-17T12:21:48;5.50;95.90
72604;DHT22;60645;56.968;24.196;2024-03-17T12:24:18;5.30;96.10
72604;DHT22;60645;56.968;24.196;2024-03-17T12:26:45;5.30;97.20
72604;DHT22;60645;56.968;24.196;2024-03-17T12:29:27;4.90;96.80
72604;DHT22;60645;56.968;24.196;2024-03-17T12:31:56;5.00;97.00
72604;DHT22;60645;56.968;24.196;2024-03-17T12:34:22;5.00;97.60
72604;DHT22;60645;56.968;24.196;2024-03-17T12:36:48;5.10;98.30
72604;DHT22;60645;56.968;24.196;2024-03-17T12:39:19;5.20;98.00
72604;DHT22;60645;56.968;24.196;2024-03-17T12:41:45;5.20;96.90
72604;DHT22;60645;56.968;24.196;2024-03-17T12:44:21;5.10;96.00
72604;DHT22;60645;56.968;24.196;2024-03-17T12:46:47;5.40;96.40
72604;DHT22;60645;56.968;24.196;2024-03-17T12:49:13;5.30;96.30
72604;DHT22;60645;56.968;24.196;2024-03-17T12:51:38;5.30;96.60
72604;DHT22;60645;56.968;24.196;2024-03-17T12:54:15;5.40;97.20
72604;DHT22;60645;56.968;24.196;2024-03-17T12:56:40;5.20;97.00
72604;DHT22;60645;56.968;24.196;2024-03-17T12:59:25;5.40;96.30
72604;DHT22;60645;56.968;24.196;2024-03-17T13:02:28;5.20;96.40
72604;DHT22;60645;56.968;24.196;2024-03-17T13:07:32;5.20;96.00
72604;DHT22;60645;56.968;24.196;2024-03-17T13:09:57;4.80;96.20
72604;DHT22;60645;56.968;24.196;2024-03-17T13:12:23;4.80;96.00
72604;DHT22;60645;56.968;24.196;2024-03-17T13:14:49;4.70;95.80
72604;DHT22;60645;56.968;24.196;2024-03-17T13:17:15;4.70;96.10
72604;DHT22;60645;56.968;24.196;2024-03-17T13:19:48;4.70;97.30
72604;DHT22;60645;56.968;24.196;2024-03-17T13:22:14;4.70;96.60
72604;DHT22;60645;56.968;24.196;2024-03-17T13:24:39;4.80;96.50
72604;DHT22;60645;56.968;24.196;2024-03-17T13:27:05;4.60;96.80
72604;DHT22;60645;56.968;24.196;2024-03-17T13:29:36;4.70;97.10
72604;DHT22;60645;56.968;24.196;2024-03-17T13:32:03;4.70;96.10
72604;DHT22;60645;56.968;24.196;2024-03-17T13:34:29;4.80;96.10
72604;DHT22;60645;56.968;24.196;2024-03-17T13:36:54;4.90;96.70
72604;DHT22;60645;56.968;24.196;2024-03-17T13:39:20;4.80;96.20
72604;DHT22;60645;56.968;24.196;2024-03-17T13:41:47;4.80;95.90
72604;DHT22;60645;56.968;24.196;2024-03-17T13:44:18;4.70;96.20
72604;DHT22;60645;56.968;24.196;2024-03-17T13:46:44;4.80;95.80
72604;DHT22;60645;56.968;24.196;2024-03-17T13:49:10;4.60;95.30
72604;DHT22;60645;56.968;24.196;2024-03-17T13:51:36;4.60;95.20
72604;DHT22;60645;56.968;24.196;2024-03-17T13:54:02;4.70;95.50
72604;DHT22;60645;56.968;24.196;2024-03-17T13:56:28;4.50;95.60
72604;DHT22;60645;56.968;24.196;2024-03-17T13:58:54;4.40;96.30
72604;DHT22;60645;56.968;24.196;2024-03-17T14:01:20;4.50;96.10
72604;DHT22;60645;56.968;24.196;2024-03-17T14:03:45;4.30;96.50
72604;DHT22;60645;56.968;24.196;2024-03-17T14:06:11;4.40;96.40
72604;DHT22;60645;56.968;24.196;2024-03-17T14:08:38;4.30;96.50
72604;DHT22;60645;56.968;24.196;2024-03-17T14:11:03;4.40;97.40
72604;DHT22;60645;56.968;24.196;2024-03-17T14:13:32;4.40;97.80
72604;DHT22;60645;56.968;24.196;2024-03-17T14:15:58;4.50;97.40
72604;DHT22;60645;56.968;24.196;2024-03-17T14:18:24;4.30;97.60
72604;DHT22;60645;56.968;24.196;2024-03-17T14:20:50;4.40;97.40
72604;DHT22;60645;56.968;24.196;2024-03-17T14:23:16;4.50;96.90
72604;DHT22;60645;56.968;24.196;2024-03-17T14:25:42;4.40;97.00
72604;DHT22;60645;56.968;24.196;2024-03-17T14:28:08;4.50;96.40
72604;DHT22;60645;56.968;24.196;2024-03-17T14:30:34;4.30;96.30
72604;DHT22;60645;56.968;24.196;2024-03-17T14:33:00;4.10;97.10
72604;DHT22;60645;56.968;24.196;2024-03-17T14:35:26;4.30;97.60
72604;DHT22;60645;56.968;24.196;2024-03-17T14:37:55;4.30;97.40
72604;DHT22;60645;56.968;24.196;2024-03-17T14:40:23;4.20;97.10
72604;DHT22;60645;56.968;24.196;2024-03-17T14:42:50;4.10;97.20
72604;DHT22;60645;56.968;24.196;2024-03-17T14:45:16;4.30;97.20
72604;DHT22;60645;56.968;24.196;2024-03-17T14:47:42;3.90;97.40
72604;DHT22;60645;56.968;24.196;2024-03-17T14:50:10;4.10;97.70
72604;DHT22;60645;56.968;24.196;2024-03-17T14:52:37;4.00;97.80
72604;DHT22;60645;56.968;24.196;2024-03-17T14:55:04;4.00;97.60
72604;DHT22;60645;56.968;24.196;2024-03-17T14:57:30;4.20;97.80
72604;DHT22;60645;56.968;24.196;2024-03-17T14:59:56;4.20;97.40
72604;DHT22;60645;56.968;24.196;2024-03-17T15:02:22;4.00;97.60
72604;DHT22;60645;56.968;24.196;2024-03-17T15:04:49;4.20;97.50
72604;DHT22;60645;56.968;24.196;2024-03-17T15:07:17;4.10;97.40
72604;DHT22;60645;56.968;24.196;2024-03-17T15:09:43;4.00;97.70
72604;DHT22;60645;56.968;24.196;2024-03-17T15:12:08;4.00;97.90
72604;DHT22;60645;56.968;24.196;2024-03-17T15:14:34;4.00;98.50
72604;DHT22;60645;56.968;24.196;2024-03-17T15:17:03;3.90;98.50
72604;DHT22;60645;56.968;24.196;2024-03-17T15:19:28;4.00;98.50
72604;DHT22;60645;56.968;24.196;2024-03-17T15:21:54;4.00;98.70
72604;DHT22;60645;56.968;24.196;2024-03-17T15:24:20;4.00;98.60
72604;DHT22;60645;56.968;24.196;2024-03-17T15:26:46;3.90;99.00
72604;DHT22;60645;56.968;24.196;2024-03-17T15:29:12;4.00;98.70
72604;DHT22;60645;56.968;24.196;2024-03-17T15:31:38;3.90;98.50
72604;DHT22;60645;56.968;24.196;2024-03-17T15:34:07;4.00;98.70
72604;DHT22;60645;56.968;24.196;2024-03-17T15:36:32;4.00;98.60
72604;DHT22;60645;56.968;24.196;2024-03-17T15:38:58;4.20;99.10
72604;DHT22;60645;56.968;24.196;2024-03-17T15:41:25;4.10;98.50
72604;DHT22;60645;56.968;24.196;2024-03-17T15:43:51;4.00;97.70
72604;DHT22;60645;56.968;24.196;2024-03-17T15:46:18;4.00;98.10
72604;DHT22;60645;56.968;24.196;2024-03-17T15:48:46;4.20;97.70
72604;DHT22;60645;56.968;24.196;2024-03-17T15:51:12;4.10;98.10
72604;DHT22;60645;56.968;24.196;2024-03-17T15:53:38;4.10;98.10